createdAt,value
2023-01-12T00:02:10.554Z,3.89
2023-01-12T00:04:38.521Z,3.89
2023-01-12T00:07:07.840Z,3.93
2023-01-12T00:09:35.702Z,3.93
2023-01-12T00:12:06.180Z,4.03
2023-01-12T00:14:37.837Z,4.06
2023-01-12T00:17:06.390Z,4.06
2023-01-12T00:19:38.752Z,4.06
2023-01-12T00:22:12.336Z,3.93
2023-01-12T00:24:44.771Z,3.85
2023-01-12T00:27:15.759Z,3.80
2023-01-12T00:29:43.660Z,3.80
2023-01-12T00:32:15.783Z,3.81
2023-01-12T00:34:44.019Z,3.86
2023-01-12T00:37:11.967Z,3.75
2023-01-12T00:39:42.916Z,3.76
2023-01-12T00:42:32.226Z,3.74
2023-01-12T00:45:18.666Z,3.80
2023-01-12T00:47:46.525Z,3.77
2023-01-12T00:50:14.924Z,3.76
2023-01-12T00:52:42.421Z,3.73
2023-01-12T00:55:10.232Z,3.66
2023-01-12T00:57:37.763Z,3.67
2023-01-12T01:00:06.114Z,3.69
2023-01-12T01:02:34.547Z,3.59
2023-01-12T01:05:02.239Z,3.56
2023-01-12T01:07:30.368Z,3.47
2023-01-12T01:09:58.228Z,3.43
2023-01-12T01:12:25.710Z,3.43
2023-01-12T01:14:53.590Z,3.51
2023-01-12T01:17:21.427Z,3.41
2023-01-12T01:19:50.307Z,3.42
2023-01-12T01:22:17.932Z,3.40
2023-01-12T01:24:47.509Z,3.48
2023-01-12T01:27:15.040Z,3.56
2023-01-12T01:29:42.727Z,3.52
2023-01-12T01:32:10.491Z,3.65
2023-01-12T01:34:38.050Z,3.74
2023-01-12T01:37:05.672Z,3.78
2023-01-12T01:39:36.057Z,3.80
2023-01-12T01:42:03.627Z,3.79
2023-01-12T01:44:31.081Z,3.82
2023-01-12T01:47:05.863Z,3.82
2023-01-12T01:49:41.003Z,3.79
2023-01-12T01:52:14.765Z,3.83
2023-01-12T01:54:47.044Z,3.85
2023-01-12T01:57:15.477Z,3.84
2023-01-12T01:59:47.808Z,3.82
2023-01-12T02:02:16.278Z,3.80
2023-01-12T02:04:44.553Z,3.80
2023-01-12T02:07:12.572Z,3.63
2023-01-12T02:09:40.361Z,3.79
2023-01-12T02:12:27.027Z,3.87
2023-01-12T02:15:14.138Z,3.88
2023-01-12T02:18:00.630Z,3.86
2023-01-12T02:20:54.589Z,3.88
2023-01-12T02:23:46.952Z,3.85
2023-01-12T02:26:14.635Z,3.86
2023-01-12T02:28:57.166Z,3.88
2023-01-12T02:31:24.917Z,3.86
2023-01-12T02:34:09.293Z,3.90
2023-01-12T02:36:40.038Z,3.89
2023-01-12T02:39:31.821Z,3.93
2023-01-12T02:42:39.029Z,3.95
2023-01-12T02:45:26.583Z,3.94
2023-01-12T02:48:05.932Z,3.78
2023-01-12T02:50:45.642Z,3.53
2023-01-12T02:53:24.300Z,3.52
2023-01-12T02:55:52.539Z,3.50
2023-01-12T02:58:21.978Z,3.47
2023-01-12T03:00:51.623Z,3.52
2023-01-12T03:03:19.740Z,3.52
2023-01-12T03:05:47.772Z,3.44
2023-01-12T03:08:16.956Z,3.09
2023-01-12T03:11:19.522Z,3.00
2023-01-12T03:13:52.571Z,3.09
2023-01-12T03:16:22.595Z,2.73
2023-01-12T03:18:53.306Z,2.75
2023-01-12T03:21:45.551Z,2.77
2023-01-12T03:24:15.732Z,2.75
2023-01-12T03:26:47.718Z,2.88
2023-01-12T03:29:30.192Z,2.96
2023-01-12T03:31:59.412Z,2.78
2023-01-12T03:34:27.851Z,2.65
2023-01-12T03:37:16.026Z,2.66
2023-01-12T03:39:46.535Z,2.67
2023-01-12T03:42:18.539Z,2.66
2023-01-12T03:45:05.872Z,2.71
2023-01-12T03:47:33.939Z,2.72
2023-01-12T03:50:07.000Z,2.69
2023-01-12T03:52:36.624Z,2.73
2023-01-12T03:55:06.136Z,2.76
2023-01-12T03:57:33.925Z,2.84
2023-01-12T04:00:03.651Z,2.88
2023-01-12T04:02:43.306Z,2.90
2023-01-12T04:05:12.514Z,3.01
2023-01-12T04:07:40.387Z,2.80
2023-01-12T04:10:08.990Z,2.94
2023-01-12T04:12:39.635Z,2.97
2023-01-12T04:15:07.665Z,3.02
2023-01-12T04:17:35.259Z,2.94
2023-01-12T04:20:04.614Z,2.96
2023-01-12T04:22:44.204Z,2.86
2023-01-12T04:25:19.849Z,2.98
2023-01-12T04:27:59.552Z,3.04
2023-01-12T04:30:33.110Z,3.11
2023-01-12T04:33:01.971Z,3.17
2023-01-12T04:35:29.736Z,3.22
2023-01-12T04:37:57.208Z,3.25
2023-01-12T04:40:25.164Z,3.26
2023-01-12T04:43:01.744Z,3.18
2023-01-12T04:45:31.324Z,3.16
2023-01-12T04:48:04.542Z,3.14
2023-01-12T04:50:32.180Z,3.17
2023-01-12T04:53:02.944Z,3.03
2023-01-12T04:55:30.553Z,2.82
2023-01-12T04:57:58.516Z,2.90
2023-01-12T05:00:26.527Z,2.93
2023-01-12T05:02:59.549Z,3.00
2023-01-12T05:05:27.400Z,3.02
2023-01-12T05:08:13.752Z,3.01
2023-01-12T05:10:41.551Z,3.09
2023-01-12T05:13:09.052Z,3.09
2023-01-12T05:15:36.563Z,3.17
2023-01-12T05:18:04.626Z,3.23
2023-01-12T05:20:32.288Z,3.30
2023-01-12T05:22:59.763Z,3.23
2023-01-12T05:25:29.199Z,3.29
2023-01-12T05:27:57.950Z,3.39
2023-01-12T05:30:27.248Z,3.41
2023-01-12T05:32:55.248Z,3.35
2023-01-12T05:35:22.886Z,3.36
2023-01-12T05:37:50.672Z,3.28
2023-01-12T05:40:18.527Z,3.28
2023-01-12T05:43:04.707Z,3.36
2023-01-12T05:45:32.520Z,3.42
2023-01-12T05:48:01.999Z,3.47
2023-01-12T05:50:29.649Z,3.48
2023-01-12T05:53:09.446Z,3.52
2023-01-12T05:55:37.975Z,3.55
2023-01-12T05:58:05.679Z,3.56
2023-01-12T06:00:33.568Z,3.59
2023-01-12T06:03:02.733Z,3.63
2023-01-12T06:05:30.297Z,3.63
2023-01-12T06:07:58.540Z,3.65
2023-01-12T06:10:26.539Z,3.66
2023-01-12T06:13:12.980Z,3.82
2023-01-12T06:15:40.807Z,3.65
2023-01-12T06:18:08.753Z,3.76
2023-01-12T06:20:36.492Z,3.74
2023-01-12T06:23:07.887Z,3.65
2023-01-12T06:25:35.455Z,3.68
2023-01-12T06:28:05.748Z,3.63
2023-01-12T06:30:34.128Z,3.61
2023-01-12T06:33:03.143Z,3.60
2023-01-12T06:35:30.880Z,3.67
2023-01-12T06:38:02.155Z,3.71
2023-01-12T06:40:29.871Z,3.75
2023-01-12T06:42:57.452Z,3.77
2023-01-12T06:45:25.248Z,3.74
2023-01-12T06:47:53.211Z,3.82
2023-01-12T06:50:20.799Z,3.76
2023-01-12T06:52:49.051Z,3.72
2023-01-12T06:55:16.856Z,3.72
2023-01-12T06:57:44.592Z,3.76
2023-01-12T07:00:13.780Z,3.84
2023-01-12T07:02:42.365Z,3.80
2023-01-12T07:05:10.400Z,3.82
2023-01-12T07:07:40.189Z,3.81
2023-01-12T07:10:11.302Z,3.89
2023-01-12T07:12:41.560Z,3.99
2023-01-12T07:15:09.732Z,3.97
2023-01-12T07:17:37.567Z,4.02
2023-01-12T07:20:06.165Z,4.16
2023-01-12T07:22:33.909Z,4.24
2023-01-12T07:25:01.757Z,4.19
2023-01-12T07:27:29.873Z,4.16
2023-01-12T07:29:57.505Z,4.28
2023-01-12T07:32:26.955Z,4.31
2023-01-12T07:34:54.759Z,4.41
2023-01-12T07:37:22.332Z,4.48
2023-01-12T07:39:49.957Z,4.48
2023-01-12T07:42:23.480Z,4.48
2023-01-12T07:44:52.142Z,4.50
2023-01-12T07:47:20.083Z,4.47
2023-01-12T07:49:48.812Z,4.56
2023-01-12T07:52:16.678Z,4.59
2023-01-12T07:54:44.645Z,4.66
2023-01-12T07:57:12.445Z,4.61
2023-01-12T07:59:40.367Z,4.61
2023-01-12T08:02:17.033Z,4.76
2023-01-12T08:04:47.304Z,4.81
2023-01-12T08:07:15.300Z,4.90
2023-01-12T08:09:45.694Z,4.97
2023-01-12T08:12:13.742Z,5.00
2023-01-12T08:14:42.152Z,5.02
2023-01-12T08:17:20.918Z,5.06
2023-01-12T08:19:55.016Z,5.15
2023-01-12T08:22:27.222Z,5.15
2023-01-12T08:25:04.031Z,5.18
2023-01-12T08:27:32.259Z,5.16
2023-01-12T08:30:02.737Z,5.08
2023-01-12T08:32:30.677Z,5.12
2023-01-12T08:35:01.757Z,5.09
2023-01-12T08:37:31.355Z,4.97
2023-01-12T08:39:59.179Z,4.96
2023-01-12T08:42:31.927Z,5.06
2023-01-12T08:45:00.318Z,5.13
2023-01-12T08:47:30.343Z,5.13
2023-01-12T08:50:02.999Z,5.09
2023-01-12T08:52:34.481Z,5.21
2023-01-12T08:55:02.355Z,5.27
2023-01-12T08:57:30.199Z,5.09
2023-01-12T08:59:58.170Z,5.20
2023-01-12T09:02:27.383Z,5.24
2023-01-12T09:04:55.589Z,5.30
2023-01-12T09:07:23.586Z,5.27
2023-01-12T09:09:53.589Z,5.58
2023-01-12T09:12:23.529Z,5.82
2023-01-12T09:14:53.754Z,5.93
2023-01-12T09:17:23.020Z,6.11
2023-01-12T09:19:50.862Z,6.10
2023-01-12T09:22:18.737Z,6.24
2023-01-12T09:24:46.624Z,6.10
2023-01-12T09:27:14.279Z,6.16
2023-01-12T09:29:42.338Z,6.22
2023-01-12T09:32:10.010Z,6.08
2023-01-12T09:34:37.823Z,6.25
2023-01-12T09:37:05.673Z,6.26
2023-01-12T09:39:33.361Z,6.21
2023-01-12T09:42:19.577Z,6.33
2023-01-12T09:45:07.588Z,6.29
2023-01-12T09:47:53.474Z,6.36
2023-01-12T09:50:28.718Z,6.55
2023-01-12T09:53:00.743Z,6.63
2023-01-12T09:56:14.024Z,6.64
2023-01-12T09:59:00.779Z,6.53
2023-01-12T10:01:30.180Z,6.48
2023-01-12T10:04:00.397Z,6.71
2023-01-12T10:06:28.182Z,6.48
2023-01-12T10:08:56.327Z,6.51
2023-01-12T10:12:00.880Z,6.71
2023-01-12T10:14:37.333Z,6.73
2023-01-12T10:17:25.547Z,6.67
2023-01-12T10:20:12.551Z,6.66
2023-01-12T10:22:43.960Z,6.49
2023-01-12T10:25:44.940Z,6.37
2023-01-12T10:28:17.515Z,6.50
2023-01-12T10:30:45.602Z,6.36
2023-01-12T10:33:23.016Z,6.43
2023-01-12T10:35:53.833Z,6.30
2023-01-12T10:38:32.580Z,6.29
2023-01-12T10:41:23.986Z,6.26
2023-01-12T10:44:00.669Z,6.23
2023-01-12T10:46:31.759Z,6.16
2023-01-12T10:49:15.795Z,6.25
2023-01-12T10:51:59.785Z,6.20
2023-01-12T10:54:33.977Z,6.16
2023-01-12T10:57:19.874Z,6.26
2023-01-12T10:59:53.648Z,6.23
2023-01-12T11:02:24.241Z,6.24
2023-01-12T11:04:53.734Z,6.20
2023-01-12T11:07:27.090Z,6.22
2023-01-12T11:09:57.757Z,6.15
2023-01-12T11:12:40.203Z,6.03
2023-01-12T11:15:11.704Z,6.05
2023-01-12T11:18:03.217Z,5.93
2023-01-12T11:20:45.138Z,5.97
2023-01-12T11:23:53.718Z,5.90
2023-01-12T11:26:27.247Z,6.17
2023-01-12T11:29:15.008Z,5.99
2023-01-12T11:31:43.989Z,6.02
2023-01-12T11:34:23.851Z,6.03
2023-01-12T11:37:01.123Z,5.98
2023-01-12T11:39:30.707Z,6.12
2023-01-12T11:42:20.519Z,6.03
2023-01-12T11:44:58.564Z,6.12
2023-01-12T11:47:34.115Z,6.20
2023-01-12T11:50:18.866Z,6.32
2023-01-12T11:52:47.069Z,6.21
2023-01-12T11:55:17.408Z,6.13
2023-01-12T11:58:06.906Z,6.05
2023-01-12T12:00:54.731Z,5.94
2023-01-12T12:03:44.598Z,5.86
2023-01-12T12:06:27.673Z,5.77
2023-01-12T12:09:04.641Z,5.75
2023-01-12T12:11:45.011Z,5.68
2023-01-12T12:14:51.190Z,5.77
2023-01-12T12:17:31.048Z,5.80
2023-01-12T12:20:21.618Z,5.90
2023-01-12T12:23:07.519Z,5.86
2023-01-12T12:25:48.507Z,5.84
2023-01-12T12:28:41.888Z,5.76
2023-01-12T12:31:42.919Z,5.99
2023-01-12T12:34:39.555Z,5.98
2023-01-12T12:37:20.949Z,6.02
2023-01-12T12:39:54.862Z,6.13
2023-01-12T12:42:53.633Z,6.19
2023-01-12T12:45:36.901Z,6.30
2023-01-12T12:48:15.805Z,6.17
2023-01-12T12:50:44.523Z,6.28
2023-01-12T12:53:34.181Z,6.28
2023-01-12T12:59:52.162Z,6.21
2023-01-12T13:02:38.853Z,6.51
2023-01-12T13:05:10.044Z,6.55
2023-01-12T13:07:53.341Z,6.24
2023-01-12T13:10:29.030Z,6.44
2023-01-12T13:13:22.172Z,6.33
2023-01-12T13:15:50.274Z,6.48
2023-01-12T13:18:48.901Z,6.43
2023-01-12T13:21:28.309Z,6.37
2023-01-12T13:24:17.253Z,6.53
2023-01-12T13:26:52.264Z,6.41
2023-01-12T13:29:23.142Z,6.51
2023-01-12T13:31:51.306Z,6.55
2023-01-12T13:34:37.204Z,6.47
2023-01-12T13:37:11.369Z,6.51
2023-01-12T13:39:46.917Z,6.52
2023-01-12T13:42:38.566Z,6.30
2023-01-12T13:45:11.514Z,6.31
2023-01-12T13:47:39.580Z,6.34
2023-01-12T13:50:15.900Z,6.43
2023-01-12T13:52:44.382Z,6.30
2023-01-12T13:55:25.054Z,6.19
2023-01-12T13:58:06.832Z,6.23
2023-01-12T14:00:35.134Z,6.29
2023-01-12T14:03:04.501Z,6.28
2023-01-12T14:05:36.985Z,6.33
2023-01-12T14:08:39.695Z,6.34
2023-01-12T14:11:30.542Z,6.37
2023-01-12T14:14:24.185Z,6.49
2023-01-12T14:17:15.295Z,6.38
2023-01-12T14:19:50.932Z,6.28
2023-01-12T14:22:19.964Z,6.20
2023-01-12T14:24:47.861Z,6.21
2023-01-12T14:27:17.100Z,6.22
2023-01-12T14:29:45.704Z,6.15
2023-01-12T14:32:14.124Z,6.12
2023-01-12T14:34:49.287Z,6.25
2023-01-12T14:37:34.635Z,6.26
2023-01-12T14:40:05.274Z,6.24
2023-01-12T14:42:51.727Z,6.24
2023-01-12T14:45:45.369Z,6.17
2023-01-12T14:48:27.929Z,6.29
2023-01-12T14:51:10.736Z,6.30
2023-01-12T14:53:40.521Z,6.34
2023-01-12T14:56:17.710Z,6.33
2023-01-12T14:58:46.753Z,6.23
2023-01-12T15:01:30.551Z,6.25
2023-01-12T15:03:58.996Z,6.19
2023-01-12T15:06:26.638Z,6.17
2023-01-12T15:09:00.316Z,6.13
2023-01-12T15:11:35.416Z,6.08
2023-01-12T15:14:05.930Z,6.11
2023-01-12T15:16:52.386Z,6.14
2023-01-12T15:19:38.363Z,6.11
2023-01-12T15:22:27.554Z,5.93
2023-01-12T15:25:14.139Z,5.77
2023-01-12T15:27:42.123Z,5.63
2023-01-12T15:30:11.533Z,5.51
2023-01-12T15:32:47.838Z,5.45
2023-01-12T15:35:21.908Z,5.42
2023-01-12T15:37:51.659Z,5.39
2023-01-12T15:40:19.915Z,5.36
2023-01-12T15:42:48.395Z,5.35
2023-01-12T15:45:28.150Z,5.33
2023-01-12T15:47:56.470Z,5.27
2023-01-12T15:50:24.161Z,5.24
2023-01-12T15:52:51.737Z,5.28
2023-01-12T15:55:21.993Z,5.23
2023-01-12T15:57:51.369Z,5.17
2023-01-12T16:00:22.074Z,5.15
2023-01-12T16:02:51.425Z,5.13
2023-01-12T16:05:23.432Z,5.15
2023-01-12T16:07:51.625Z,5.13
2023-01-12T16:10:19.803Z,5.15
2023-01-12T16:12:50.628Z,5.17
2023-01-12T16:15:23.755Z,5.06
2023-01-12T16:17:51.770Z,4.85
2023-01-12T16:20:20.699Z,4.73
2023-01-12T16:22:48.817Z,4.67
2023-01-12T16:25:18.284Z,4.45
2023-01-12T16:27:46.803Z,4.65
2023-01-12T16:30:16.279Z,4.67
2023-01-12T16:32:46.851Z,4.57
2023-01-12T16:35:15.793Z,4.42
2023-01-12T16:37:44.770Z,4.35
2023-01-12T16:40:12.953Z,4.28
2023-01-12T16:42:40.802Z,4.26
2023-01-12T16:45:09.195Z,4.32
2023-01-12T16:47:36.998Z,4.26
2023-01-12T16:50:05.310Z,4.27
2023-01-12T16:52:36.072Z,4.11
2023-01-12T16:55:05.735Z,4.11
2023-01-12T16:57:34.239Z,4.05
2023-01-12T17:00:02.268Z,3.99
2023-01-12T17:02:31.754Z,3.86
2023-01-12T17:05:00.367Z,3.92
2023-01-12T17:07:28.694Z,3.83
2023-01-12T17:09:58.250Z,3.83
2023-01-12T17:12:26.194Z,3.84
2023-01-12T17:14:53.874Z,3.77
2023-01-12T17:17:21.552Z,3.64
2023-01-12T17:19:51.735Z,3.60
2023-01-12T17:22:19.697Z,3.50
2023-01-12T17:24:47.503Z,3.47
2023-01-12T17:27:16.024Z,3.43
2023-01-12T17:29:43.668Z,3.47
2023-01-12T17:32:11.479Z,3.43
2023-01-12T17:34:40.064Z,3.39
2023-01-12T17:37:08.612Z,3.43
2023-01-12T17:39:40.579Z,3.37
2023-01-12T17:42:29.635Z,3.19
2023-01-12T17:44:57.449Z,3.20
2023-01-12T17:47:25.639Z,3.18
2023-01-12T17:49:54.581Z,3.09
2023-01-12T17:52:23.060Z,3.04
2023-01-12T17:54:51.003Z,3.01
2023-01-12T17:57:18.562Z,3.07
2023-01-12T17:59:50.117Z,3.05
2023-01-12T18:02:18.363Z,3.04
2023-01-12T18:04:46.643Z,3.01
2023-01-12T18:07:22.547Z,3.00
2023-01-12T18:09:52.851Z,3.01
2023-01-12T18:12:21.558Z,3.00
2023-01-12T18:14:49.186Z,2.93
2023-01-12T18:17:17.313Z,2.92
2023-01-12T18:19:45.487Z,2.97
2023-01-12T18:22:13.103Z,3.01
2023-01-12T18:24:41.036Z,2.96
2023-01-12T18:27:08.582Z,2.99
2023-01-12T18:29:36.714Z,2.98
2023-01-12T18:32:05.539Z,3.00
2023-01-12T18:34:33.219Z,2.97
2023-01-12T18:37:00.807Z,2.93
2023-01-12T18:39:28.908Z,2.93
2023-01-12T18:42:15.033Z,2.91
2023-01-12T18:44:42.988Z,2.90
2023-01-12T18:47:33.452Z,2.90
2023-01-12T18:50:21.509Z,2.91
2023-01-12T18:53:07.687Z,2.87
2023-01-12T18:55:38.434Z,2.80
2023-01-12T18:58:06.141Z,2.80
2023-01-12T19:00:33.977Z,2.81
2023-01-12T19:03:02.274Z,2.77
2023-01-12T19:05:37.585Z,2.79
2023-01-12T19:08:25.771Z,2.78
2023-01-12T19:10:53.610Z,2.79
2023-01-12T19:13:40.299Z,2.75
2023-01-12T19:16:32.198Z,2.76
2023-01-12T19:19:00.114Z,2.79
2023-01-12T19:21:46.696Z,2.78
2023-01-12T19:24:33.230Z,2.87
2023-01-12T19:27:19.287Z,2.98
2023-01-12T19:29:48.328Z,3.04
2023-01-12T19:32:16.356Z,2.88
2023-01-12T19:34:44.048Z,2.80
2023-01-12T19:37:13.611Z,2.79
2023-01-12T19:39:59.700Z,2.78
2023-01-12T19:42:47.823Z,2.71
2023-01-12T19:45:15.871Z,2.80
2023-01-12T19:47:43.791Z,2.83
2023-01-12T19:50:14.133Z,2.90
2023-01-12T19:52:43.292Z,2.85
2023-01-12T19:55:14.137Z,2.87
2023-01-12T19:57:43.217Z,2.75
2023-01-12T20:00:15.183Z,2.75
2023-01-12T20:02:44.464Z,2.73
2023-01-12T20:05:13.647Z,2.65
2023-01-12T20:07:41.380Z,2.57
2023-01-12T20:10:09.880Z,2.46
2023-01-12T20:12:37.970Z,2.50
2023-01-12T20:15:07.153Z,2.59
2023-01-12T20:17:36.161Z,2.52
2023-01-12T20:20:08.432Z,2.58
2023-01-12T20:22:37.292Z,2.59
2023-01-12T20:25:06.128Z,2.54
2023-01-12T20:27:35.623Z,2.43
2023-01-12T20:30:05.717Z,2.44
2023-01-12T20:32:38.086Z,2.46
2023-01-12T20:35:06.325Z,2.61
2023-01-12T20:37:34.468Z,2.42
2023-01-12T20:40:04.544Z,2.33
2023-01-12T20:42:33.005Z,2.34
2023-01-12T20:45:01.622Z,2.34
2023-01-12T20:47:30.633Z,2.40
2023-01-12T20:50:00.302Z,2.36
2023-01-12T20:52:28.283Z,2.30
2023-01-12T20:54:55.883Z,2.29
2023-01-12T20:57:23.716Z,2.30
2023-01-12T20:59:51.374Z,2.39
2023-01-12T21:02:24.405Z,2.48
2023-01-12T21:04:52.498Z,2.55
2023-01-12T21:07:21.774Z,2.51
2023-01-12T21:09:49.425Z,2.25
2023-01-12T21:12:17.219Z,2.28
2023-01-12T21:14:44.795Z,2.25
2023-01-12T21:17:12.813Z,2.37
2023-01-12T21:19:40.767Z,2.46
2023-01-12T21:22:08.398Z,2.44
2023-01-12T21:24:36.112Z,2.07
2023-01-12T21:27:04.095Z,2.10
2023-01-12T21:29:31.821Z,2.10
2023-01-12T21:31:59.699Z,2.15
2023-01-12T21:34:27.674Z,2.26
2023-01-12T21:36:55.182Z,2.33
2023-01-12T21:39:22.843Z,2.13
2023-01-12T21:42:08.887Z,1.80
2023-01-12T21:44:36.426Z,1.98
2023-01-12T21:47:04.274Z,2.08
2023-01-12T21:49:32.099Z,2.06
2023-01-12T21:51:59.745Z,1.72
2023-01-12T21:54:27.703Z,1.86
2023-01-12T21:56:55.228Z,1.78
2023-01-12T21:59:22.933Z,1.92
2023-01-12T22:01:50.961Z,2.00
2023-01-12T22:04:18.925Z,1.90
2023-01-12T22:06:46.450Z,1.98
2023-01-12T22:09:14.026Z,1.99
2023-01-12T22:11:42.006Z,1.95
2023-01-12T22:14:09.641Z,2.01
2023-01-12T22:16:37.339Z,1.85
2023-01-12T22:19:05.103Z,2.00
2023-01-12T22:21:32.623Z,1.96
2023-01-12T22:24:00.581Z,1.99
2023-01-12T22:26:30.458Z,1.95
2023-01-12T22:28:58.491Z,1.98
2023-01-12T22:31:26.312Z,1.83
2023-01-12T22:34:07.173Z,1.46
2023-01-12T22:36:42.779Z,1.64
2023-01-12T22:39:13.984Z,1.66
2023-01-12T22:41:42.179Z,1.66
2023-01-12T22:44:10.136Z,1.69
2023-01-12T22:46:38.520Z,1.64
2023-01-12T22:49:07.372Z,1.68
2023-01-12T22:51:36.198Z,1.60
2023-01-12T22:54:03.921Z,1.57
2023-01-12T22:56:31.479Z,1.49
2023-01-12T22:58:59.356Z,1.22
2023-01-12T23:01:27.358Z,1.46
2023-01-12T23:03:56.648Z,1.47
2023-01-12T23:06:25.822Z,1.37
2023-01-12T23:08:53.663Z,0.85
2023-01-12T23:11:25.187Z,1.04
2023-01-12T23:13:54.983Z,1.20
2023-01-12T23:16:22.531Z,1.27
2023-01-12T23:18:51.544Z,1.26
2023-01-12T23:21:25.209Z,1.06
2023-01-12T23:23:58.004Z,0.93
2023-01-12T23:26:28.494Z,0.84
2023-01-12T23:28:58.245Z,0.86
2023-01-12T23:31:30.036Z,0.94
2023-01-12T23:33:57.936Z,1.02
2023-01-12T23:36:27.924Z,0.82
2023-01-12T23:38:58.627Z,0.72
2023-01-12T23:41:28.023Z,0.74
2023-01-12T23:43:58.406Z,0.73
2023-01-12T23:46:27.479Z,0.57
2023-01-12T23:48:56.787Z,0.57
2023-01-12T23:51:26.407Z,0.62
2023-01-12T23:53:59.355Z,0.82
2023-01-12T23:56:28.653Z,0.88
2023-01-12T23:58:56.769Z,0.89
